sensor_id;sensor_type;location;lat;lon;timestamp;pressure;altitude;pressure_sealevel;temperature;humidity
61528;BME280;47395;42.032;-8.634;2023-12-22T00:00:47;77414.50;;;-148.63;40.32
61528;BME280;47395;42.032;-8.634;2023-12-22T00:02:54;77358.47;;;-148.63;39.88
61528;BME280;47395;42.032;-8.634;2023-12-22T00:04:55;77328.44;;;-148.63;39.73
61528;BME280;47395;42.032;-8.634;2023-12-22T00:07:00;77296.41;;;-148.63;39.30
61528;BME280;47395;42.032;-8.634;2023-12-22T00:09:04;77318.44;;;-148.63;39.05
61528;BME280;47395;42.032;-8.634;2023-12-22T00:11:09;77358.47;;;-148.63;39.74
61528;BME280;47395;42.032;-8.634;2023-12-22T00:13:13;77390.50;;;-148.63;39.99
61528;BME280;47395;42.032;-8.634;2023-12-22T00:15:16;77412.50;;;-148.63;40.33
61528;BME280;47395;42.032;-8.634;2023-12-22T00:17:20;77426.50;;;-148.63;40.10
61528;BME280;47395;42.032;-8.634;2023-12-22T00:19:24;77450.53;;;-148.63;40.60
61528;BME280;47395;42.032;-8.634;2023-12-22T00:21:28;77450.53;;;-148.63;40.45
61528;BME280;47395;42.032;-8.634;2023-12-22T00:23:38;77444.53;;;-148.63;40.45
61528;BME280;47395;42.032;-8.634;2023-12-22T00:26:17;77458.53;;;-148.63;40.86
61528;BME280;47395;42.032;-8.634;2023-12-22T00:28:43;77468.53;;;-148.63;40.75
61528;BME280;47395;42.032;-8.634;2023-12-22T00:30:59;77470.53;;;-148.63;41.33
61528;BME280;47395;42.032;-8.634;2023-12-22T00:33:31;77452.53;;;-148.63;40.81
61528;BME280;47395;42.032;-8.634;2023-12-22T00:38:12;77470.53;;;-148.63;41.42
61528;BME280;47395;42.032;-8.634;2023-12-22T00:40:37;77402.50;;;-148.63;40.66
61528;BME280;47395;42.032;-8.634;2023-12-22T00:43:07;77512.59;;;-148.63;42.05
61528;BME280;47395;42.032;-8.634;2023-12-22T00:47:42;77400.50;;;-148.63;40.70
61528;BME280;47395;42.032;-8.634;2023-12-22T00:50:05;77488.56;;;-148.63;41.06
61528;BME280;47395;42.032;-8.634;2023-12-22T00:52:12;77400.50;;;-148.63;40.57
61528;BME280;47395;42.032;-8.634;2023-12-22T00:54:31;77384.47;;;-148.63;40.23
61528;BME280;47395;42.032;-8.634;2023-12-22T00:56:52;77340.44;;;-148.63;39.55
61528;BME280;47395;42.032;-8.634;2023-12-22T00:59:21;77300.41;;;-148.63;38.83
61528;BME280;47395;42.032;-8.634;2023-12-22T01:01:34;77284.41;;;-148.63;38.69
61528;BME280;47395;42.032;-8.634;2023-12-22T01:03:44;77272.41;;;-148.63;38.24
61528;BME280;47395;42.032;-8.634;2023-12-22T01:06:08;77304.41;;;-148.63;38.69
61528;BME280;47395;42.032;-8.634;2023-12-22T01:08:56;77290.41;;;-148.63;38.52
61528;BME280;47395;42.032;-8.634;2023-12-22T01:11:37;77308.44;;;-148.63;38.81
61528;BME280;47395;42.032;-8.634;2023-12-22T01:13:47;77342.44;;;-148.63;38.99
61528;BME280;47395;42.032;-8.634;2023-12-22T01:15:56;77308.44;;;-148.63;38.55
61528;BME280;47395;42.032;-8.634;2023-12-22T01:18:22;77322.44;;;-148.63;38.58
61528;BME280;47395;42.032;-8.634;2023-12-22T01:20:56;77288.41;;;-148.63;38.42
61528;BME280;47395;42.032;-8.634;2023-12-22T01:23:49;77294.41;;;-148.63;38.27
61528;BME280;47395;42.032;-8.634;2023-12-22T01:26:06;77290.41;;;-148.63;38.31
61528;BME280;47395;42.032;-8.634;2023-12-22T01:28:28;77278.41;;;-148.63;38.24
61528;BME280;47395;42.032;-8.634;2023-12-22T01:30:55;77256.38;;;-148.63;37.82
61528;BME280;47395;42.032;-8.634;2023-12-22T01:33:33;77274.41;;;-148.63;37.90
61528;BME280;47395;42.032;-8.634;2023-12-22T01:36:17;77316.44;;;-148.63;38.11
61528;BME280;47395;42.032;-8.634;2023-12-22T01:38:46;77328.44;;;-148.63;38.19
61528;BME280;47395;42.032;-8.634;2023-12-22T01:41:07;77358.47;;;-148.63;38.50
61528;BME280;47395;42.032;-8.634;2023-12-22T01:43:23;77310.44;;;-148.63;38.26
61528;BME280;47395;42.032;-8.634;2023-12-22T01:45:44;77336.44;;;-148.63;38.03
61528;BME280;47395;42.032;-8.634;2023-12-22T01:55:11;77434.53;;;-148.63;38.86
61528;BME280;47395;42.032;-8.634;2023-12-22T01:57:46;77430.50;;;-148.63;38.88
61528;BME280;47395;42.032;-8.634;2023-12-22T02:02:32;77396.50;;;-148.63;38.56
61528;BME280;47395;42.032;-8.634;2023-12-22T02:11:00;77370.47;;;-148.63;38.01
61528;BME280;47395;42.032;-8.634;2023-12-22T02:13:58;77426.50;;;-148.63;38.10
61528;BME280;47395;42.032;-8.634;2023-12-22T02:16:21;77400.50;;;-148.63;37.84
61528;BME280;47395;42.032;-8.634;2023-12-22T02:18:53;77430.50;;;-148.63;37.78
61528;BME280;47395;42.032;-8.634;2023-12-22T02:21:33;77488.56;;;-148.63;38.28
61528;BME280;47395;42.032;-8.634;2023-12-22T02:23:40;77480.56;;;-148.63;38.24
61528;BME280;47395;42.032;-8.634;2023-12-22T02:26:44;77482.56;;;-148.63;38.26
61528;BME280;47395;42.032;-8.634;2023-12-22T02:29:03;77482.56;;;-148.63;38.44
61528;BME280;47395;42.032;-8.634;2023-12-22T02:31:56;77534.59;;;-148.63;38.67
61528;BME280;47395;42.032;-8.634;2023-12-22T02:34:28;77482.56;;;-148.63;38.36
61528;BME280;47395;42.032;-8.634;2023-12-22T02:37:03;77500.56;;;-148.63;38.67
61528;BME280;47395;42.032;-8.634;2023-12-22T02:39:12;77498.56;;;-148.63;38.40
61528;BME280;47395;42.032;-8.634;2023-12-22T02:41:30;77500.56;;;-148.63;38.61
61528;BME280;47395;42.032;-8.634;2023-12-22T02:44:07;77520.59;;;-148.63;38.79
61528;BME280;47395;42.032;-8.634;2023-12-22T02:46:22;77554.63;;;-148.63;39.21
61528;BME280;47395;42.032;-8.634;2023-12-22T02:48:52;77598.66;;;-148.63;39.62
61528;BME280;47395;42.032;-8.634;2023-12-22T02:51:33;77520.59;;;-148.63;39.36
61528;BME280;47395;42.032;-8.634;2023-12-22T02:53:37;77518.59;;;-148.63;39.33
61528;BME280;47395;42.032;-8.634;2023-12-22T02:55:53;77468.53;;;-148.63;38.69
61528;BME280;47395;42.032;-8.634;2023-12-22T02:58:06;77448.53;;;-148.63;38.38
61528;BME280;47395;42.032;-8.634;2023-12-22T03:00:21;77482.56;;;-148.63;38.68
61528;BME280;47395;42.032;-8.634;2023-12-22T03:02:52;77494.56;;;-148.63;38.79
61528;BME280;47395;42.032;-8.634;2023-12-22T03:07:41;77488.56;;;-148.63;38.50
61528;BME280;47395;42.032;-8.634;2023-12-22T03:10:07;77536.59;;;-148.63;38.45
61528;BME280;47395;42.032;-8.634;2023-12-22T03:12:20;77512.59;;;-148.63;38.47
61528;BME280;47395;42.032;-8.634;2023-12-22T03:15:09;77542.59;;;-148.63;38.88
61528;BME280;47395;42.032;-8.634;2023-12-22T03:19:50;77548.59;;;-148.63;39.25
61528;BME280;47395;42.032;-8.634;2023-12-22T03:22:12;77600.66;;;-148.63;39.66
61528;BME280;47395;42.032;-8.634;2023-12-22T03:24:32;77566.63;;;-148.63;39.64
61528;BME280;47395;42.032;-8.634;2023-12-22T03:26:42;77546.59;;;-148.63;39.43
61528;BME280;47395;42.032;-8.634;2023-12-22T03:31:53;77578.63;;;-148.63;39.29
61528;BME280;47395;42.032;-8.634;2023-12-22T03:34:06;77644.69;;;-148.63;39.87
61528;BME280;47395;42.032;-8.634;2023-12-22T03:37:05;77576.63;;;-148.63;38.91
61528;BME280;47395;42.032;-8.634;2023-12-22T03:39:26;77604.66;;;-148.63;39.29
61528;BME280;47395;42.032;-8.634;2023-12-22T03:41:39;77606.66;;;-148.63;38.87
61528;BME280;47395;42.032;-8.634;2023-12-22T03:43:56;77596.66;;;-148.63;38.77
61528;BME280;47395;42.032;-8.634;2023-12-22T03:51:31;77656.69;;;-148.63;40.01
61528;BME280;47395;42.032;-8.634;2023-12-22T03:53:37;77582.63;;;-148.63;39.15
61528;BME280;47395;42.032;-8.634;2023-12-22T03:55:44;77578.63;;;-148.63;39.13
61528;BME280;47395;42.032;-8.634;2023-12-22T03:57:47;77604.66;;;-148.63;39.48
61528;BME280;47395;42.032;-8.634;2023-12-22T03:59:59;77582.63;;;-148.63;39.60
61528;BME280;47395;42.032;-8.634;2023-12-22T04:02:07;77546.59;;;-148.63;39.12
61528;BME280;47395;42.032;-8.634;2023-12-22T04:04:23;77658.69;;;-148.63;40.66
61528;BME280;47395;42.032;-8.634;2023-12-22T04:09:13;77558.63;;;-148.63;39.35
61528;BME280;47395;42.032;-8.634;2023-12-22T04:14:01;77612.66;;;-148.63;40.20
61528;BME280;47395;42.032;-8.634;2023-12-22T04:16:10;77574.63;;;-148.63;39.69
61528;BME280;47395;42.032;-8.634;2023-12-22T04:18:21;77526.59;;;-148.63;39.39
61528;BME280;47395;42.032;-8.634;2023-12-22T04:21:01;77552.63;;;-148.63;38.97
61528;BME280;47395;42.032;-8.634;2023-12-22T04:23:10;77568.63;;;-148.63;39.38
61528;BME280;47395;42.032;-8.634;2023-12-22T04:25:26;77516.59;;;-148.63;38.89
61528;BME280;47395;42.032;-8.634;2023-12-22T04:27:46;77554.63;;;-148.63;39.33
61528;BME280;47395;42.032;-8.634;2023-12-22T04:30:30;77530.59;;;-148.63;38.69
61528;BME280;47395;42.032;-8.634;2023-12-22T04:35:51;77516.59;;;-148.63;38.62
61528;BME280;47395;42.032;-8.634;2023-12-22T04:38:21;77476.56;;;-148.63;37.97
61528;BME280;47395;42.032;-8.634;2023-12-22T04:41:38;77550.59;;;-148.63;38.46
61528;BME280;47395;42.032;-8.634;2023-12-22T04:48:53;77510.56;;;-148.63;38.14
61528;BME280;47395;42.032;-8.634;2023-12-22T04:51:14;77490.56;;;-148.63;38.15
61528;BME280;47395;42.032;-8.634;2023-12-22T04:53:32;77538.59;;;-148.63;38.54
61528;BME280;47395;42.032;-8.634;2023-12-22T04:55:42;77554.63;;;-148.63;39.13
61528;BME280;47395;42.032;-8.634;2023-12-22T04:58:05;77496.56;;;-148.63;38.40
61528;BME280;47395;42.032;-8.634;2023-12-22T05:00:27;77500.56;;;-148.63;38.48
61528;BME280;47395;42.032;-8.634;2023-12-22T05:04:52;77478.56;;;-148.63;38.33
61528;BME280;47395;42.032;-8.634;2023-12-22T05:15:46;77504.56;;;-148.63;38.58
61528;BME280;47395;42.032;-8.634;2023-12-22T05:17:58;77502.56;;;-148.63;38.69
61528;BME280;47395;42.032;-8.634;2023-12-22T05:20:05;77476.56;;;-148.63;38.47
61528;BME280;47395;42.032;-8.634;2023-12-22T05:22:13;77550.59;;;-148.63;39.24
61528;BME280;47395;42.032;-8.634;2023-12-22T05:24:27;77490.56;;;-148.63;38.83
61528;BME280;47395;42.032;-8.634;2023-12-22T05:26:37;77482.56;;;-148.63;38.94
61528;BME280;47395;42.032;-8.634;2023-12-22T05:28:54;77484.56;;;-148.63;38.93
61528;BME280;47395;42.032;-8.634;2023-12-22T05:31:02;77440.53;;;-148.63;38.28
61528;BME280;47395;42.032;-8.634;2023-12-22T05:33:17;77530.59;;;-148.63;38.72
61528;BME280;47395;42.032;-8.634;2023-12-22T05:35:27;77480.56;;;-148.63;38.31
61528;BME280;47395;42.032;-8.634;2023-12-22T05:37:36;77532.59;;;-148.63;38.53
61528;BME280;47395;42.032;-8.634;2023-12-22T05:39:40;77526.59;;;-148.63;38.63
61528;BME280;47395;42.032;-8.634;2023-12-22T05:41:44;77516.59;;;-148.63;38.51
61528;BME280;47395;42.032;-8.634;2023-12-22T05:43:48;77552.63;;;-148.63;38.72
61528;BME280;47395;42.032;-8.634;2023-12-22T05:46:07;77594.66;;;-148.63;38.91
61528;BME280;47395;42.032;-8.634;2023-12-22T05:48:17;77566.63;;;-148.63;39.02
61528;BME280;47395;42.032;-8.634;2023-12-22T05:51:00;77568.63;;;-148.63;38.84
61528;BME280;47395;42.032;-8.634;2023-12-22T05:53:35;77550.59;;;-148.63;38.69
61528;BME280;47395;42.032;-8.634;2023-12-22T05:55:52;77598.66;;;-148.63;39.26
61528;BME280;47395;42.032;-8.634;2023-12-22T05:58:24;77558.63;;;-148.63;38.97
61528;BME280;47395;42.032;-8.634;2023-12-22T06:00:42;77604.66;;;-148.63;39.45
61528;BME280;47395;42.032;-8.634;2023-12-22T06:02:51;77554.63;;;-148.63;38.86
61528;BME280;47395;42.032;-8.634;2023-12-22T06:05:04;77560.63;;;-148.63;39.02
61528;BME280;47395;42.032;-8.634;2023-12-22T06:09:59;77578.63;;;-148.63;39.51
61528;BME280;47395;42.032;-8.634;2023-12-22T06:15:06;77522.59;;;-148.63;38.36
61528;BME280;47395;42.032;-8.634;2023-12-22T06:17:13;77568.63;;;-148.63;38.67
61528;BME280;47395;42.032;-8.634;2023-12-22T06:19:42;77612.66;;;-148.63;39.27
61528;BME280;47395;42.032;-8.634;2023-12-22T06:21:56;77592.66;;;-148.63;39.05
61528;BME280;47395;42.032;-8.634;2023-12-22T06:24:09;77584.63;;;-148.63;39.17
61528;BME280;47395;42.032;-8.634;2023-12-22T06:26:16;77634.69;;;-148.63;39.67
61528;BME280;47395;42.032;-8.634;2023-12-22T06:28:30;77634.69;;;-148.63;39.21
61528;BME280;47395;42.032;-8.634;2023-12-22T06:30:47;77606.66;;;-148.63;39.35
61528;BME280;47395;42.032;-8.634;2023-12-22T06:32:54;77632.69;;;-148.63;39.39
61528;BME280;47395;42.032;-8.634;2023-12-22T06:35:11;77650.69;;;-148.63;39.66
61528;BME280;47395;42.032;-8.634;2023-12-22T06:37:20;77674.72;;;-148.63;40.37
61528;BME280;47395;42.032;-8.634;2023-12-22T06:39:29;77648.69;;;-148.63;39.45
61528;BME280;47395;42.032;-8.634;2023-12-22T06:41:45;77712.75;;;-148.63;40.35
61528;BME280;47395;42.032;-8.634;2023-12-22T06:43:50;77608.66;;;-148.63;39.34
61528;BME280;47395;42.032;-8.634;2023-12-22T06:45:56;77666.72;;;-148.63;39.39
61528;BME280;47395;42.032;-8.634;2023-12-22T06:48:08;77634.69;;;-148.63;39.29
61528;BME280;47395;42.032;-8.634;2023-12-22T06:52:31;77644.69;;;-148.63;39.56
61528;BME280;47395;42.032;-8.634;2023-12-22T06:57:11;77634.69;;;-148.63;39.25
61528;BME280;47395;42.032;-8.634;2023-12-22T06:59:39;77626.66;;;-148.63;39.23
61528;BME280;47395;42.032;-8.634;2023-12-22T07:01:43;77714.75;;;-148.63;40.30
61528;BME280;47395;42.032;-8.634;2023-12-22T07:03:55;77710.75;;;-148.63;40.16
61528;BME280;47395;42.032;-8.634;2023-12-22T07:06:22;77710.75;;;-148.63;40.72
61528;BME280;47395;42.032;-8.634;2023-12-22T07:08:39;77650.69;;;-148.63;39.62
61528;BME280;47395;42.032;-8.634;2023-12-22T07:13:52;77612.66;;;-148.63;39.43
61528;BME280;47395;42.032;-8.634;2023-12-22T07:18:13;77592.66;;;-148.63;39.15
61528;BME280;47395;42.032;-8.634;2023-12-22T07:20:20;77602.66;;;-148.63;39.10
61528;BME280;47395;42.032;-8.634;2023-12-22T07:22:53;77606.66;;;-148.63;38.93
61528;BME280;47395;42.032;-8.634;2023-12-22T07:25:21;77574.63;;;-148.63;38.56
61528;BME280;47395;42.032;-8.634;2023-12-22T07:27:32;77598.66;;;-148.63;38.38
61528;BME280;47395;42.032;-8.634;2023-12-22T07:29:41;77602.66;;;-148.63;38.54
61528;BME280;47395;42.032;-8.634;2023-12-22T07:31:56;77570.63;;;-148.63;38.28
61528;BME280;47395;42.032;-8.634;2023-12-22T07:34:15;77576.63;;;-148.63;38.28
61528;BME280;47395;42.032;-8.634;2023-12-22T07:36:22;77582.63;;;-148.63;38.25
61528;BME280;47395;42.032;-8.634;2023-12-22T07:38:25;77642.69;;;-148.63;38.78
61528;BME280;47395;42.032;-8.634;2023-12-22T07:40:35;77628.69;;;-148.63;38.86
61528;BME280;47395;42.032;-8.634;2023-12-22T07:42:54;77742.78;;;-148.63;39.77
61528;BME280;47395;42.032;-8.634;2023-12-22T07:45:16;77660.69;;;-148.63;38.98
61528;BME280;47395;42.032;-8.634;2023-12-22T07:47:24;77620.66;;;-148.63;38.86
61528;BME280;47395;42.032;-8.634;2023-12-22T07:49:42;77676.72;;;-148.63;39.43
61528;BME280;47395;42.032;-8.634;2023-12-22T07:54:18;77724.75;;;-148.63;39.63
61528;BME280;47395;42.032;-8.634;2023-12-22T07:56:35;77682.72;;;-148.63;39.54
61528;BME280;47395;42.032;-8.634;2023-12-22T07:58:47;77684.72;;;-148.63;39.85
61528;BME280;47395;42.032;-8.634;2023-12-22T08:00:56;77674.72;;;-148.63;39.70
61528;BME280;47395;42.032;-8.634;2023-12-22T08:03:09;77632.69;;;-148.63;39.31
61528;BME280;47395;42.032;-8.634;2023-12-22T08:05:13;77614.66;;;-148.63;38.75
61528;BME280;47395;42.032;-8.634;2023-12-22T08:12:16;77614.66;;;-148.63;38.62
61528;BME280;47395;42.032;-8.634;2023-12-22T08:14:30;77638.69;;;-148.63;38.94
61528;BME280;47395;42.032;-8.634;2023-12-22T08:16:37;77640.69;;;-148.63;39.06
61528;BME280;47395;42.032;-8.634;2023-12-22T08:18:44;77628.69;;;-148.63;39.17
61528;BME280;47395;42.032;-8.634;2023-12-22T08:21:02;77594.66;;;-148.63;38.61
61528;BME280;47395;42.032;-8.634;2023-12-22T08:23:15;77592.66;;;-148.63;38.28
61528;BME280;47395;42.032;-8.634;2023-12-22T08:25:27;77618.66;;;-148.63;38.53
61528;BME280;47395;42.032;-8.634;2023-12-22T08:27:35;77642.69;;;-148.63;38.42
61528;BME280;47395;42.032;-8.634;2023-12-22T08:29:39;77662.69;;;-148.63;38.34
61528;BME280;47395;42.032;-8.634;2023-12-22T08:31:57;77654.69;;;-148.63;38.17
61528;BME280;47395;42.032;-8.634;2023-12-22T08:33:59;77648.69;;;-148.63;38.14
61528;BME280;47395;42.032;-8.634;2023-12-22T08:36:06;77650.69;;;-148.63;38.31
61528;BME280;47395;42.032;-8.634;2023-12-22T08:38:21;77610.66;;;-148.63;37.65
61528;BME280;47395;42.032;-8.634;2023-12-22T08:40:30;77620.66;;;-148.63;37.89
61528;BME280;47395;42.032;-8.634;2023-12-22T08:42:37;77662.69;;;-148.63;38.55
61528;BME280;47395;42.032;-8.634;2023-12-22T08:44:53;77702.72;;;-148.63;38.69
61528;BME280;47395;42.032;-8.634;2023-12-22T08:46:57;77668.72;;;-148.63;38.94
61528;BME280;47395;42.032;-8.634;2023-12-22T08:49:02;77718.75;;;-148.63;39.23
61528;BME280;47395;42.032;-8.634;2023-12-22T08:51:15;77680.72;;;-148.63;39.04
61528;BME280;47395;42.032;-8.634;2023-12-22T08:55:37;77620.66;;;-148.63;38.31
61528;BME280;47395;42.032;-8.634;2023-12-22T08:57:42;77716.75;;;-148.63;39.08
61528;BME280;47395;42.032;-8.634;2023-12-22T08:59:54;77626.66;;;-148.63;38.83
61528;BME280;47395;42.032;-8.634;2023-12-22T09:02:01;77734.75;;;-148.63;38.94
61528;BME280;47395;42.032;-8.634;2023-12-22T09:04:42;77682.72;;;-148.63;38.98
61528;BME280;47395;42.032;-8.634;2023-12-22T09:06:47;77610.66;;;-148.63;38.56
61528;BME280;47395;42.032;-8.634;2023-12-22T09:08:54;77626.66;;;-148.63;38.50
61528;BME280;47395;42.032;-8.634;2023-12-22T09:11:04;77558.63;;;-148.63;38.12
61528;BME280;47395;42.032;-8.634;2023-12-22T09:13:17;77682.72;;;-148.63;39.21
61528;BME280;47395;42.032;-8.634;2023-12-22T09:15:24;77542.59;;;-148.63;38.03
61528;BME280;47395;42.032;-8.634;2023-12-22T09:17:44;77602.66;;;-148.63;38.80
61528;BME280;47395;42.032;-8.634;2023-12-22T09:19:51;77590.63;;;-148.63;38.59
61528;BME280;47395;42.032;-8.634;2023-12-22T09:22:24;77598.66;;;-148.63;38.75
61528;BME280;47395;42.032;-8.634;2023-12-22T09:24:31;77544.59;;;-148.63;38.47
61528;BME280;47395;42.032;-8.634;2023-12-22T09:26:46;77592.66;;;-148.63;39.04
61528;BME280;47395;42.032;-8.634;2023-12-22T09:29:20;77498.56;;;-148.63;38.45
61528;BME280;47395;42.032;-8.634;2023-12-22T09:31:38;77338.44;;;-148.63;36.88
61528;BME280;47395;42.032;-8.634;2023-12-22T09:33:51;77144.31;;;-148.63;34.93
61528;BME280;47395;42.032;-8.634;2023-12-22T09:36:00;77012.22;;;-148.63;33.60
61528;BME280;47395;42.032;-8.634;2023-12-22T09:38:31;76794.06;;;-148.63;31.96
61528;BME280;47395;42.032;-8.634;2023-12-22T09:46:08;76557.94;;;-148.63;30.12
61528;BME280;47395;42.032;-8.634;2023-12-22T09:51:19;76337.81;;;-148.63;28.97
61528;BME280;47395;42.032;-8.634;2023-12-22T09:53:50;76317.81;;;-148.63;28.82
61528;BME280;47395;42.032;-8.634;2023-12-22T09:56:06;76297.81;;;-148.63;28.21
61528;BME280;47395;42.032;-8.634;2023-12-22T09:59:16;76161.75;;;-148.63;27.76
61528;BME280;47395;42.032;-8.634;2023-12-22T10:01:47;76193.75;;;-148.63;27.94
61528;BME280;47395;42.032;-8.634;2023-12-22T10:04:04;76091.72;;;-148.63;27.59
61528;BME280;47395;42.032;-8.634;2023-12-22T10:06:05;76135.72;;;-148.63;27.68
61528;BME280;47395;42.032;-8.634;2023-12-22T10:08:08;76249.78;;;-148.63;28.36
61528;BME280;47395;42.032;-8.634;2023-12-22T10:10:12;76109.72;;;-148.63;27.71
61528;BME280;47395;42.032;-8.634;2023-12-22T10:12:14;76111.72;;;-148.63;27.54
61528;BME280;47395;42.032;-8.634;2023-12-22T10:14:21;76169.75;;;-148.63;27.97
61528;BME280;47395;42.032;-8.634;2023-12-22T10:16:23;76177.75;;;-148.63;28.05
61528;BME280;47395;42.032;-8.634;2023-12-22T10:18:24;76261.78;;;-148.63;28.79
61528;BME280;47395;42.032;-8.634;2023-12-22T10:20:25;76181.75;;;-148.63;28.62
61528;BME280;47395;42.032;-8.634;2023-12-22T10:22:26;76135.72;;;-148.63;28.09
61528;BME280;47395;42.032;-8.634;2023-12-22T10:24:44;76033.69;;;-148.63;27.72
61528;BME280;47395;42.032;-8.634;2023-12-22T10:26:47;76071.69;;;-148.63;27.91
61528;BME280;47395;42.032;-8.634;2023-12-22T10:28:48;76115.72;;;-148.63;27.72
61528;BME280;47395;42.032;-8.634;2023-12-22T10:30:50;76113.72;;;-148.63;27.92
61528;BME280;47395;42.032;-8.634;2023-12-22T10:32:51;76095.72;;;-148.63;27.69
61528;BME280;47395;42.032;-8.634;2023-12-22T10:34:55;76141.72;;;-148.63;28.21
61528;BME280;47395;42.032;-8.634;2023-12-22T10:36:59;76127.72;;;-148.63;27.83
61528;BME280;47395;42.032;-8.634;2023-12-22T10:39:00;76043.69;;;-148.63;27.13
61528;BME280;47395;42.032;-8.634;2023-12-22T10:41:05;76039.69;;;-148.63;26.89
61528;BME280;47395;42.032;-8.634;2023-12-22T10:43:09;76175.75;;;-148.63;27.76
61528;BME280;47395;42.032;-8.634;2023-12-22T10:45:11;76109.72;;;-148.63;27.52
61528;BME280;47395;42.032;-8.634;2023-12-22T10:47:12;75981.66;;;-148.63;26.93
61528;BME280;47395;42.032;-8.634;2023-12-22T10:49:13;75989.66;;;-148.63;27.13
61528;BME280;47395;42.032;-8.634;2023-12-22T10:51:17;76041.69;;;-148.63;27.46
61528;BME280;47395;42.032;-8.634;2023-12-22T10:53:21;75987.66;;;-148.63;27.17
61528;BME280;47395;42.032;-8.634;2023-12-22T10:55:22;75913.63;;;-148.63;26.69
61528;BME280;47395;42.032;-8.634;2023-12-22T10:57:27;75847.59;;;-148.63;26.52
61528;BME280;47395;42.032;-8.634;2023-12-22T10:59:32;75939.66;;;-148.63;26.62
61528;BME280;47395;42.032;-8.634;2023-12-22T11:01:37;75919.63;;;-148.63;26.84
61528;BME280;47395;42.032;-8.634;2023-12-22T11:03:44;75905.63;;;-148.63;26.70
61528;BME280;47395;42.032;-8.634;2023-12-22T11:05:48;75853.63;;;-148.63;26.39
61528;BME280;47395;42.032;-8.634;2023-12-22T11:07:55;75909.63;;;-148.63;26.61
61528;BME280;47395;42.032;-8.634;2023-12-22T11:10:03;75861.63;;;-148.63;26.45
61528;BME280;47395;42.032;-8.634;2023-12-22T11:12:05;75901.63;;;-148.63;26.69
61528;BME280;47395;42.032;-8.634;2023-12-22T11:14:08;75955.66;;;-148.63;27.03
61528;BME280;47395;42.032;-8.634;2023-12-22T11:16:11;75997.66;;;-148.63;27.02
61528;BME280;47395;42.032;-8.634;2023-12-22T11:18:15;76131.72;;;-148.63;27.65
61528;BME280;47395;42.032;-8.634;2023-12-22T11:20:18;76129.72;;;-148.63;27.76
61528;BME280;47395;42.032;-8.634;2023-12-22T11:22:20;76043.69;;;-148.63;27.18
61528;BME280;47395;42.032;-8.634;2023-12-22T11:24:22;76035.69;;;-148.63;27.15
61528;BME280;47395;42.032;-8.634;2023-12-22T11:26:25;75815.59;;;-148.63;25.91
61528;BME280;47395;42.032;-8.634;2023-12-22T11:28:27;75927.63;;;-148.63;26.46
61528;BME280;47395;42.032;-8.634;2023-12-22T11:30:30;75893.63;;;-148.63;25.97
61528;BME280;47395;42.032;-8.634;2023-12-22T11:32:33;76007.66;;;-148.63;27.02
61528;BME280;47395;42.032;-8.634;2023-12-22T11:34:45;76093.72;;;-148.63;27.52
61528;BME280;47395;42.032;-8.634;2023-12-22T11:36:47;75937.66;;;-148.63;27.22
61528;BME280;47395;42.032;-8.634;2023-12-22T11:38:49;75901.63;;;-148.63;26.41
61528;BME280;47395;42.032;-8.634;2023-12-22T11:40:52;75969.66;;;-148.63;27.18
61528;BME280;47395;42.032;-8.634;2023-12-22T11:42:53;75921.63;;;-148.63;26.64
61528;BME280;47395;42.032;-8.634;2023-12-22T11:44:55;75845.59;;;-148.63;26.74
61528;BME280;47395;42.032;-8.634;2023-12-22T11:47:07;75901.63;;;-148.63;26.43
61528;BME280;47395;42.032;-8.634;2023-12-22T11:49:11;75909.63;;;-148.63;26.38
61528;BME280;47395;42.032;-8.634;2023-12-22T11:51:17;76061.69;;;-148.63;27.72
61528;BME280;47395;42.032;-8.634;2023-12-22T11:53:24;75947.66;;;-148.63;27.04
61528;BME280;47395;42.032;-8.634;2023-12-22T11:55:57;75931.66;;;-148.63;26.98
61528;BME280;47395;42.032;-8.634;2023-12-22T11:57:58;75963.66;;;-148.63;26.86
61528;BME280;47395;42.032;-8.634;2023-12-22T12:00:42;75989.66;;;-148.63;27.15
61528;BME280;47395;42.032;-8.634;2023-12-22T12:02:54;76051.69;;;-148.63;27.62
61528;BME280;47395;42.032;-8.634;2023-12-22T12:04:57;75989.66;;;-148.63;26.93
61528;BME280;47395;42.032;-8.634;2023-12-22T12:09:45;75953.66;;;-148.63;26.79
61528;BME280;47395;42.032;-8.634;2023-12-22T12:12:13;75857.63;;;-148.63;26.36
61528;BME280;47395;42.032;-8.634;2023-12-22T12:14:23;75949.66;;;-148.63;26.63
61528;BME280;47395;42.032;-8.634;2023-12-22T12:16:28;75807.59;;;-148.63;26.09
61528;BME280;47395;42.032;-8.634;2023-12-22T12:18:30;75801.59;;;-148.63;26.02
61528;BME280;47395;42.032;-8.634;2023-12-22T12:20:33;75905.63;;;-148.63;26.74
61528;BME280;47395;42.032;-8.634;2023-12-22T12:22:35;75967.66;;;-148.63;26.79
61528;BME280;47395;42.032;-8.634;2023-12-22T12:24:39;75993.66;;;-148.63;27.10
61528;BME280;47395;42.032;-8.634;2023-12-22T12:26:41;75977.66;;;-148.63;27.01
61528;BME280;47395;42.032;-8.634;2023-12-22T12:28:45;75913.63;;;-148.63;26.91
61528;BME280;47395;42.032;-8.634;2023-12-22T12:30:47;75837.59;;;-148.63;26.13
61528;BME280;47395;42.032;-8.634;2023-12-22T12:32:48;75879.63;;;-148.63;26.73
61528;BME280;47395;42.032;-8.634;2023-12-22T12:34:49;75709.56;;;-148.63;25.32
61528;BME280;47395;42.032;-8.634;2023-12-22T12:36:52;75743.56;;;-148.63;25.53
61528;BME280;47395;42.032;-8.634;2023-12-22T12:38:55;75761.56;;;-148.63;25.72
61528;BME280;47395;42.032;-8.634;2023-12-22T12:40:59;75725.56;;;-148.63;25.80
61528;BME280;47395;42.032;-8.634;2023-12-22T12:43:02;75781.59;;;-148.63;25.88
61528;BME280;47395;42.032;-8.634;2023-12-22T12:45:07;75843.59;;;-148.63;26.24
61528;BME280;47395;42.032;-8.634;2023-12-22T12:47:12;75767.59;;;-148.63;25.94
61528;BME280;47395;42.032;-8.634;2023-12-22T12:49:13;75887.63;;;-148.63;26.61
61528;BME280;47395;42.032;-8.634;2023-12-22T12:51:22;75801.59;;;-148.63;26.30
61528;BME280;47395;42.032;-8.634;2023-12-22T12:53:23;75929.63;;;-148.63;26.72
61528;BME280;47395;42.032;-8.634;2023-12-22T12:55:26;75835.59;;;-148.63;26.77
61528;BME280;47395;42.032;-8.634;2023-12-22T12:57:28;75949.66;;;-148.63;27.10